sensor_id;sensor_type;location;lat;lon;timestamp;P1;durP1;ratioP1;P2;durP2;ratioP2
61188;SDS011;47054;39.716;2.904;2023-02-01T00:00:55;15.90;;;6.93;;
61188;SDS011;47054;39.716;2.904;2023-02-01T00:03:40;15.65;;;7.25;;
61188;SDS011;47054;39.716;2.904;2023-02-01T00:06:24;14.43;;;6.88;;
61188;SDS011;47054;39.716;2.904;2023-02-01T00:09:09;18.25;;;7.43;;
61188;SDS011;47054;39.716;2.904;2023-02-01T00:11:53;18.65;;;6.68;;
61188;SDS011;47054;39.716;2.904;2023-02-01T00:14:38;17.05;;;7.32;;
61188;SDS011;47054;39.716;2.904;2023-02-01T00:17:23;15.95;;;6.13;;
61188;SDS011;47054;39.716;2.904;2023-02-01T00:20:09;20.02;;;6.40;;
61188;SDS011;47054;39.716;2.904;2023-02-01T00:22:54;13.95;;;6.35;;
61188;SDS011;47054;39.716;2.904;2023-02-01T00:25:39;16.70;;;6.20;;
61188;SDS011;47054;39.716;2.904;2023-02-01T00:28:24;13.95;;;6.47;;
61188;SDS011;47054;39.716;2.904;2023-02-01T00:31:08;13.88;;;6.03;;
61188;SDS011;47054;39.716;2.904;2023-02-01T00:33:53;15.13;;;6.22;;
61188;SDS011;47054;39.716;2.904;2023-02-01T00:36:39;14.48;;;5.80;;
61188;SDS011;47054;39.716;2.904;2023-02-01T00:39:24;13.00;;;6.53;;
61188;SDS011;47054;39.716;2.904;2023-02-01T00:42:09;17.80;;;6.00;;
61188;SDS011;47054;39.716;2.904;2023-02-01T00:44:54;14.60;;;6.20;;
61188;SDS011;47054;39.716;2.904;2023-02-01T00:47:38;14.38;;;5.82;;
61188;SDS011;47054;39.716;2.904;2023-02-01T00:50:23;16.02;;;6.28;;
61188;SDS011;47054;39.716;2.904;2023-02-01T00:53:08;13.25;;;5.90;;
61188;SDS011;47054;39.716;2.904;2023-02-01T00:55:53;19.02;;;6.43;;
61188;SDS011;47054;39.716;2.904;2023-02-01T00:58:38;13.88;;;5.95;;
61188;SDS011;47054;39.716;2.904;2023-02-01T01:01:24;14.65;;;5.65;;
61188;SDS011;47054;39.716;2.904;2023-02-01T01:04:12;14.18;;;6.00;;
61188;SDS011;47054;39.716;2.904;2023-02-01T01:06:57;11.60;;;5.38;;
61188;SDS011;47054;39.716;2.904;2023-02-01T01:09:41;16.52;;;6.70;;
61188;SDS011;47054;39.716;2.904;2023-02-01T01:12:26;15.35;;;5.82;;
61188;SDS011;47054;39.716;2.904;2023-02-01T01:15:11;13.65;;;5.82;;
61188;SDS011;47054;39.716;2.904;2023-02-01T01:17:56;13.43;;;5.90;;
61188;SDS011;47054;39.716;2.904;2023-02-01T01:20:41;14.93;;;6.05;;
61188;SDS011;47054;39.716;2.904;2023-02-01T01:23:26;11.52;;;5.90;;
61188;SDS011;47054;39.716;2.904;2023-02-01T01:26:15;14.23;;;5.65;;
61188;SDS011;47054;39.716;2.904;2023-02-01T01:29:02;13.38;;;5.53;;
61188;SDS011;47054;39.716;2.904;2023-02-01T01:31:47;14.10;;;5.85;;
61188;SDS011;47054;39.716;2.904;2023-02-01T01:34:32;16.40;;;6.05;;
61188;SDS011;47054;39.716;2.904;2023-02-01T01:37:16;15.48;;;6.13;;
61188;SDS011;47054;39.716;2.904;2023-02-01T01:40:01;13.75;;;5.68;;
61188;SDS011;47054;39.716;2.904;2023-02-01T01:42:47;10.88;;;5.15;;
61188;SDS011;47054;39.716;2.904;2023-02-01T01:45:33;15.15;;;5.55;;
61188;SDS011;47054;39.716;2.904;2023-02-01T01:51:11;12.20;;;5.72;;
61188;SDS011;47054;39.716;2.904;2023-02-01T01:54:12;13.27;;;5.60;;
61188;SDS011;47054;39.716;2.904;2023-02-01T01:57:06;14.40;;;5.60;;
61188;SDS011;47054;39.716;2.904;2023-02-01T02:00:05;14.38;;;5.55;;
61188;SDS011;47054;39.716;2.904;2023-02-01T02:02:59;12.95;;;5.05;;
61188;SDS011;47054;39.716;2.904;2023-02-01T02:05:50;14.32;;;5.60;;
61188;SDS011;47054;39.716;2.904;2023-02-01T02:08:36;15.02;;;5.28;;
61188;SDS011;47054;39.716;2.904;2023-02-01T02:11:25;12.15;;;4.90;;
61188;SDS011;47054;39.716;2.904;2023-02-01T02:14:11;13.05;;;5.43;;
61188;SDS011;47054;39.716;2.904;2023-02-01T02:17:23;13.52;;;5.00;;
61188;SDS011;47054;39.716;2.904;2023-02-01T02:23:32;13.20;;;5.20;;
61188;SDS011;47054;39.716;2.904;2023-02-01T02:26:23;12.43;;;5.28;;
61188;SDS011;47054;39.716;2.904;2023-02-01T02:29:54;11.98;;;5.20;;
61188;SDS011;47054;39.716;2.904;2023-02-01T02:32:38;10.88;;;4.82;;
61188;SDS011;47054;39.716;2.904;2023-02-01T02:35:36;11.80;;;4.97;;
61188;SDS011;47054;39.716;2.904;2023-02-01T02:42:04;10.32;;;4.80;;
61188;SDS011;47054;39.716;2.904;2023-02-01T02:54:13;13.30;;;4.60;;
61188;SDS011;47054;39.716;2.904;2023-02-01T02:57:36;13.85;;;4.68;;
61188;SDS011;47054;39.716;2.904;2023-02-01T03:00:42;10.32;;;5.07;;
61188;SDS011;47054;39.716;2.904;2023-02-01T03:03:47;10.75;;;4.85;;
61188;SDS011;47054;39.716;2.904;2023-02-01T03:06:55;10.25;;;4.43;;
61188;SDS011;47054;39.716;2.904;2023-02-01T03:09:40;11.45;;;4.57;;
61188;SDS011;47054;39.716;2.904;2023-02-01T03:12:28;10.20;;;4.50;;
61188;SDS011;47054;39.716;2.904;2023-02-01T03:15:38;11.95;;;4.82;;
61188;SDS011;47054;39.716;2.904;2023-02-01T03:18:34;10.40;;;4.70;;
61188;SDS011;47054;39.716;2.904;2023-02-01T03:21:31;10.50;;;4.90;;
61188;SDS011;47054;39.716;2.904;2023-02-01T03:24:33;8.68;;;4.28;;
61188;SDS011;47054;39.716;2.904;2023-02-01T03:33:15;11.35;;;4.72;;
61188;SDS011;47054;39.716;2.904;2023-02-01T03:36:28;11.23;;;4.65;;
61188;SDS011;47054;39.716;2.904;2023-02-01T03:39:17;12.38;;;4.93;;
61188;SDS011;47054;39.716;2.904;2023-02-01T03:42:48;9.90;;;4.43;;
61188;SDS011;47054;39.716;2.904;2023-02-01T03:45:29;10.75;;;4.25;;
61188;SDS011;47054;39.716;2.904;2023-02-01T03:48:19;10.15;;;4.20;;
61188;SDS011;47054;39.716;2.904;2023-02-01T03:51:07;9.88;;;4.18;;
61188;SDS011;47054;39.716;2.904;2023-02-01T03:53:53;12.60;;;4.72;;
61188;SDS011;47054;39.716;2.904;2023-02-01T03:56:41;12.65;;;4.55;;
61188;SDS011;47054;39.716;2.904;2023-02-01T03:59:28;9.40;;;4.07;;
61188;SDS011;47054;39.716;2.904;2023-02-01T04:02:14;9.82;;;4.20;;
61188;SDS011;47054;39.716;2.904;2023-02-01T04:04:59;11.98;;;3.80;;
61188;SDS011;47054;39.716;2.904;2023-02-01T04:07:43;8.60;;;3.80;;
61188;SDS011;47054;39.716;2.904;2023-02-01T04:10:28;9.98;;;4.00;;
61188;SDS011;47054;39.716;2.904;2023-02-01T04:13:13;9.63;;;4.28;;
61188;SDS011;47054;39.716;2.904;2023-02-01T04:15:57;8.30;;;3.67;;
61188;SDS011;47054;39.716;2.904;2023-02-01T04:18:42;9.73;;;4.10;;
61188;SDS011;47054;39.716;2.904;2023-02-01T04:21:27;9.63;;;4.03;;
61188;SDS011;47054;39.716;2.904;2023-02-01T04:24:12;9.50;;;3.72;;
61188;SDS011;47054;39.716;2.904;2023-02-01T04:26:56;7.53;;;3.78;;
61188;SDS011;47054;39.716;2.904;2023-02-01T04:29:41;11.63;;;3.75;;
61188;SDS011;47054;39.716;2.904;2023-02-01T04:32:25;9.27;;;3.95;;
61188;SDS011;47054;39.716;2.904;2023-02-01T04:35:10;9.95;;;3.83;;
61188;SDS011;47054;39.716;2.904;2023-02-01T04:37:55;9.35;;;3.90;;
61188;SDS011;47054;39.716;2.904;2023-02-01T04:40:40;12.55;;;4.03;;
61188;SDS011;47054;39.716;2.904;2023-02-01T04:43:25;10.57;;;4.13;;
61188;SDS011;47054;39.716;2.904;2023-02-01T04:46:09;11.82;;;4.03;;
61188;SDS011;47054;39.716;2.904;2023-02-01T04:48:54;9.15;;;3.38;;
61188;SDS011;47054;39.716;2.904;2023-02-01T04:51:39;8.27;;;3.47;;
61188;SDS011;47054;39.716;2.904;2023-02-01T04:54:24;7.75;;;3.42;;
61188;SDS011;47054;39.716;2.904;2023-02-01T04:57:09;7.38;;;3.53;;
61188;SDS011;47054;39.716;2.904;2023-02-01T04:59:55;9.38;;;4.00;;
61188;SDS011;47054;39.716;2.904;2023-02-01T05:02:40;10.27;;;4.25;;
61188;SDS011;47054;39.716;2.904;2023-02-01T05:05:26;7.93;;;3.70;;
61188;SDS011;47054;39.716;2.904;2023-02-01T05:08:11;9.65;;;3.67;;
61188;SDS011;47054;39.716;2.904;2023-02-01T05:10:55;11.02;;;3.65;;
61188;SDS011;47054;39.716;2.904;2023-02-01T05:13:40;7.50;;;3.30;;
61188;SDS011;47054;39.716;2.904;2023-02-01T05:16:33;7.97;;;3.42;;
61188;SDS011;47054;39.716;2.904;2023-02-01T05:19:18;8.85;;;3.50;;
61188;SDS011;47054;39.716;2.904;2023-02-01T05:22:03;9.05;;;3.88;;
61188;SDS011;47054;39.716;2.904;2023-02-01T05:24:47;7.28;;;3.50;;
61188;SDS011;47054;39.716;2.904;2023-02-01T05:27:31;11.07;;;3.63;;
61188;SDS011;47054;39.716;2.904;2023-02-01T05:30:16;6.57;;;3.58;;
61188;SDS011;47054;39.716;2.904;2023-02-01T05:33:01;8.85;;;3.67;;
61188;SDS011;47054;39.716;2.904;2023-02-01T05:35:46;8.00;;;3.40;;
61188;SDS011;47054;39.716;2.904;2023-02-01T05:38:31;8.90;;;3.35;;
61188;SDS011;47054;39.716;2.904;2023-02-01T05:41:16;5.35;;;2.95;;
61188;SDS011;47054;39.716;2.904;2023-02-01T05:44:00;8.52;;;3.60;;
61188;SDS011;47054;39.716;2.904;2023-02-01T05:46:45;8.40;;;3.70;;
61188;SDS011;47054;39.716;2.904;2023-02-01T05:49:29;8.82;;;3.83;;
61188;SDS011;47054;39.716;2.904;2023-02-01T05:52:14;8.35;;;3.67;;
61188;SDS011;47054;39.716;2.904;2023-02-01T05:55:03;8.60;;;3.70;;
61188;SDS011;47054;39.716;2.904;2023-02-01T05:57:48;8.48;;;3.63;;
61188;SDS011;47054;39.716;2.904;2023-02-01T06:00:32;8.80;;;3.53;;
61188;SDS011;47054;39.716;2.904;2023-02-01T06:03:17;8.00;;;3.45;;
61188;SDS011;47054;39.716;2.904;2023-02-01T06:06:01;10.23;;;3.38;;
61188;SDS011;47054;39.716;2.904;2023-02-01T06:08:46;11.48;;;3.53;;
61188;SDS011;47054;39.716;2.904;2023-02-01T06:11:32;9.60;;;3.78;;
61188;SDS011;47054;39.716;2.904;2023-02-01T06:14:16;7.65;;;3.28;;
61188;SDS011;47054;39.716;2.904;2023-02-01T06:17:01;7.93;;;3.10;;
61188;SDS011;47054;39.716;2.904;2023-02-01T06:19:46;7.97;;;3.40;;
61188;SDS011;47054;39.716;2.904;2023-02-01T06:22:32;6.85;;;3.47;;
61188;SDS011;47054;39.716;2.904;2023-02-01T06:25:17;7.05;;;3.00;;
61188;SDS011;47054;39.716;2.904;2023-02-01T06:28:03;7.60;;;3.53;;
61188;SDS011;47054;39.716;2.904;2023-02-01T06:30:49;8.05;;;3.20;;
61188;SDS011;47054;39.716;2.904;2023-02-01T06:33:34;7.55;;;3.55;;
61188;SDS011;47054;39.716;2.904;2023-02-01T06:36:20;6.53;;;3.13;;
61188;SDS011;47054;39.716;2.904;2023-02-01T06:39:05;6.97;;;3.13;;
61188;SDS011;47054;39.716;2.904;2023-02-01T06:41:49;10.02;;;3.42;;
61188;SDS011;47054;39.716;2.904;2023-02-01T06:44:35;7.13;;;3.30;;
61188;SDS011;47054;39.716;2.904;2023-02-01T06:47:19;6.63;;;2.75;;
61188;SDS011;47054;39.716;2.904;2023-02-01T06:50:04;6.65;;;2.90;;
61188;SDS011;47054;39.716;2.904;2023-02-01T06:52:49;6.43;;;3.03;;
61188;SDS011;47054;39.716;2.904;2023-02-01T06:55:33;6.10;;;3.05;;
61188;SDS011;47054;39.716;2.904;2023-02-01T06:58:18;5.65;;;2.83;;
61188;SDS011;47054;39.716;2.904;2023-02-01T07:01:04;5.20;;;2.53;;
61188;SDS011;47054;39.716;2.904;2023-02-01T07:03:50;5.72;;;3.03;;
61188;SDS011;47054;39.716;2.904;2023-02-01T07:06:39;6.80;;;3.15;;
61188;SDS011;47054;39.716;2.904;2023-02-01T07:09:24;5.90;;;3.20;;
61188;SDS011;47054;39.716;2.904;2023-02-01T07:12:08;7.43;;;3.08;;
61188;SDS011;47054;39.716;2.904;2023-02-01T07:14:53;8.88;;;2.80;;
61188;SDS011;47054;39.716;2.904;2023-02-01T07:17:37;8.65;;;3.58;;
61188;SDS011;47054;39.716;2.904;2023-02-01T07:20:22;6.25;;;2.92;;
61188;SDS011;47054;39.716;2.904;2023-02-01T07:23:10;7.10;;;3.17;;
61188;SDS011;47054;39.716;2.904;2023-02-01T07:25:56;5.65;;;2.83;;
61188;SDS011;47054;39.716;2.904;2023-02-01T07:28:42;7.82;;;3.15;;
61188;SDS011;47054;39.716;2.904;2023-02-01T07:31:26;6.13;;;2.67;;
61188;SDS011;47054;39.716;2.904;2023-02-01T07:34:12;6.68;;;3.05;;
61188;SDS011;47054;39.716;2.904;2023-02-01T07:36:57;5.72;;;2.85;;
61188;SDS011;47054;39.716;2.904;2023-02-01T07:39:42;17.70;;;2.95;;
61188;SDS011;47054;39.716;2.904;2023-02-01T07:42:26;5.97;;;2.67;;
61188;SDS011;47054;39.716;2.904;2023-02-01T07:45:10;12.95;;;3.15;;
61188;SDS011;47054;39.716;2.904;2023-02-01T07:47:57;7.85;;;2.58;;
61188;SDS011;47054;39.716;2.904;2023-02-01T07:50:41;7.53;;;2.70;;
61188;SDS011;47054;39.716;2.904;2023-02-01T07:53:26;15.55;;;3.28;;
61188;SDS011;47054;39.716;2.904;2023-02-01T07:56:12;7.57;;;2.30;;
61188;SDS011;47054;39.716;2.904;2023-02-01T07:59:01;11.43;;;2.97;;
61188;SDS011;47054;39.716;2.904;2023-02-01T08:01:46;6.93;;;2.50;;
61188;SDS011;47054;39.716;2.904;2023-02-01T08:04:31;5.85;;;2.30;;
61188;SDS011;47054;39.716;2.904;2023-02-01T08:07:15;5.68;;;2.60;;
61188;SDS011;47054;39.716;2.904;2023-02-01T08:10:00;10.70;;;3.10;;
61188;SDS011;47054;39.716;2.904;2023-02-01T08:12:45;16.80;;;2.75;;
61188;SDS011;47054;39.716;2.904;2023-02-01T08:15:33;13.40;;;2.42;;
61188;SDS011;47054;39.716;2.904;2023-02-01T08:18:18;7.82;;;2.30;;
61188;SDS011;47054;39.716;2.904;2023-02-01T08:21:04;6.75;;;2.92;;
61188;SDS011;47054;39.716;2.904;2023-02-01T08:23:53;8.63;;;2.42;;
61188;SDS011;47054;39.716;2.904;2023-02-01T08:26:37;7.50;;;2.88;;
61188;SDS011;47054;39.716;2.904;2023-02-01T08:29:22;9.20;;;2.60;;
61188;SDS011;47054;39.716;2.904;2023-02-01T08:32:06;14.45;;;2.53;;
61188;SDS011;47054;39.716;2.904;2023-02-01T08:34:51;23.10;;;2.80;;
61188;SDS011;47054;39.716;2.904;2023-02-01T08:37:36;11.52;;;2.70;;
61188;SDS011;47054;39.716;2.904;2023-02-01T08:40:21;8.85;;;2.80;;
61188;SDS011;47054;39.716;2.904;2023-02-01T08:43:05;7.05;;;3.22;;
61188;SDS011;47054;39.716;2.904;2023-02-01T08:45:50;10.23;;;3.00;;
61188;SDS011;47054;39.716;2.904;2023-02-01T08:48:39;6.93;;;2.80;;
61188;SDS011;47054;39.716;2.904;2023-02-01T08:51:23;10.52;;;2.80;;
61188;SDS011;47054;39.716;2.904;2023-02-01T08:54:08;6.68;;;3.33;;
61188;SDS011;47054;39.716;2.904;2023-02-01T08:56:52;8.15;;;2.95;;
61188;SDS011;47054;39.716;2.904;2023-02-01T08:59:38;36.03;;;3.50;;
61188;SDS011;47054;39.716;2.904;2023-02-01T09:02:23;23.13;;;3.65;;
61188;SDS011;47054;39.716;2.904;2023-02-01T09:05:08;33.15;;;3.42;;
61188;SDS011;47054;39.716;2.904;2023-02-01T09:07:53;16.88;;;3.45;;
61188;SDS011;47054;39.716;2.904;2023-02-01T09:10:37;18.15;;;3.70;;
61188;SDS011;47054;39.716;2.904;2023-02-01T09:13:21;19.33;;;3.47;;
61188;SDS011;47054;39.716;2.904;2023-02-01T09:16:06;29.95;;;3.40;;
61188;SDS011;47054;39.716;2.904;2023-02-01T09:18:51;25.48;;;3.20;;
61188;SDS011;47054;39.716;2.904;2023-02-01T09:21:35;13.15;;;4.38;;
61188;SDS011;47054;39.716;2.904;2023-02-01T09:24:20;22.38;;;3.33;;
61188;SDS011;47054;39.716;2.904;2023-02-01T09:27:05;11.48;;;2.88;;
61188;SDS011;47054;39.716;2.904;2023-02-01T09:29:49;8.68;;;2.83;;
61188;SDS011;47054;39.716;2.904;2023-02-01T09:32:36;13.93;;;3.33;;
61188;SDS011;47054;39.716;2.904;2023-02-01T09:35:20;14.55;;;3.25;;
61188;SDS011;47054;39.716;2.904;2023-02-01T09:38:06;16.45;;;3.38;;
61188;SDS011;47054;39.716;2.904;2023-02-01T09:40:50;16.85;;;4.03;;
61188;SDS011;47054;39.716;2.904;2023-02-01T09:46:31;17.10;;;4.93;;
61188;SDS011;47054;39.716;2.904;2023-02-01T09:49:20;19.73;;;6.43;;
61188;SDS011;47054;39.716;2.904;2023-02-01T09:52:10;23.27;;;5.72;;
61188;SDS011;47054;39.716;2.904;2023-02-01T09:54:58;17.75;;;6.22;;
61188;SDS011;47054;39.716;2.904;2023-02-01T09:57:49;22.67;;;5.85;;
61188;SDS011;47054;39.716;2.904;2023-02-01T10:00:43;27.80;;;7.68;;
61188;SDS011;47054;39.716;2.904;2023-02-01T10:09:39;16.63;;;6.50;;
61188;SDS011;47054;39.716;2.904;2023-02-01T10:15:40;16.45;;;5.68;;
61188;SDS011;47054;39.716;2.904;2023-02-01T10:27:35;17.23;;;6.07;;
61188;SDS011;47054;39.716;2.904;2023-02-01T10:30:23;16.02;;;5.95;;
61188;SDS011;47054;39.716;2.904;2023-02-01T10:33:31;15.38;;;6.40;;
61188;SDS011;47054;39.716;2.904;2023-02-01T10:39:24;14.73;;;6.05;;
61188;SDS011;47054;39.716;2.904;2023-02-01T10:42:09;25.25;;;6.30;;
61188;SDS011;47054;39.716;2.904;2023-02-01T10:44:56;22.67;;;6.22;;
61188;SDS011;47054;39.716;2.904;2023-02-01T10:47:41;17.40;;;5.88;;
61188;SDS011;47054;39.716;2.904;2023-02-01T10:50:33;16.88;;;5.78;;
61188;SDS011;47054;39.716;2.904;2023-02-01T10:56:32;36.88;;;6.50;;
61188;SDS011;47054;39.716;2.904;2023-02-01T10:59:23;17.80;;;5.93;;
61188;SDS011;47054;39.716;2.904;2023-02-01T11:02:25;24.05;;;7.68;;
61188;SDS011;47054;39.716;2.904;2023-02-01T11:05:15;20.58;;;5.55;;
61188;SDS011;47054;39.716;2.904;2023-02-01T11:08:02;21.20;;;6.30;;
61188;SDS011;47054;39.716;2.904;2023-02-01T11:10:49;15.00;;;5.90;;
61188;SDS011;47054;39.716;2.904;2023-02-01T11:13:45;18.00;;;5.65;;
61188;SDS011;47054;39.716;2.904;2023-02-01T11:16:39;15.70;;;5.90;;
61188;SDS011;47054;39.716;2.904;2023-02-01T11:19:24;17.83;;;6.15;;
61188;SDS011;47054;39.716;2.904;2023-02-01T11:22:09;15.10;;;5.32;;
61188;SDS011;47054;39.716;2.904;2023-02-01T11:24:56;16.35;;;5.80;;
61188;SDS011;47054;39.716;2.904;2023-02-01T11:27:41;16.35;;;5.80;;
61188;SDS011;47054;39.716;2.904;2023-02-01T11:30:33;14.57;;;5.95;;
61188;SDS011;47054;39.716;2.904;2023-02-01T11:33:27;14.40;;;5.50;;
61188;SDS011;47054;39.716;2.904;2023-02-01T11:36:20;14.63;;;5.68;;
61188;SDS011;47054;39.716;2.904;2023-02-01T11:42:14;16.60;;;5.60;;
61188;SDS011;47054;39.716;2.904;2023-02-01T11:45:24;16.95;;;5.05;;
61188;SDS011;47054;39.716;2.904;2023-02-01T11:48:09;13.70;;;5.40;;
61188;SDS011;47054;39.716;2.904;2023-02-01T11:54:07;14.52;;;5.28;;
61188;SDS011;47054;39.716;2.904;2023-02-01T12:11:59;13.88;;;5.18;;
61188;SDS011;47054;39.716;2.904;2023-02-01T12:18:06;14.40;;;4.72;;
61188;SDS011;47054;39.716;2.904;2023-02-01T12:24:41;10.20;;;4.43;;
61188;SDS011;47054;39.716;2.904;2023-02-01T12:31:10;11.45;;;4.22;;
61188;SDS011;47054;39.716;2.904;2023-02-01T12:46:10;15.50;;;4.47;;
61188;SDS011;47054;39.716;2.904;2023-02-01T12:49:02;12.52;;;5.30;;
61188;SDS011;47054;39.716;2.904;2023-02-01T12:52:33;9.85;;;4.30;;
61188;SDS011;47054;39.716;2.904;2023-02-01T12:55:38;10.75;;;4.78;;
61188;SDS011;47054;39.716;2.904;2023-02-01T12:58:46;8.60;;;4.00;;
61188;SDS011;47054;39.716;2.904;2023-02-01T13:01:35;9.73;;;4.30;;
61188;SDS011;47054;39.716;2.904;2023-02-01T13:04:28;16.08;;;5.28;;
61188;SDS011;47054;39.716;2.904;2023-02-01T13:07:25;11.57;;;4.10;;
61188;SDS011;47054;39.716;2.904;2023-02-01T13:16:10;9.77;;;3.78;;
61188;SDS011;47054;39.716;2.904;2023-02-01T13:19:22;10.25;;;4.90;;
61188;SDS011;47054;39.716;2.904;2023-02-01T13:22:15;8.90;;;4.32;;
61188;SDS011;47054;39.716;2.904;2023-02-01T13:25:11;11.18;;;4.25;;
61188;SDS011;47054;39.716;2.904;2023-02-01T13:28:46;11.00;;;3.78;;
61188;SDS011;47054;39.716;2.904;2023-02-01T13:43:26;9.02;;;4.10;;
61188;SDS011;47054;39.716;2.904;2023-02-01T13:46:14;9.18;;;4.35;;
61188;SDS011;47054;39.716;2.904;2023-02-01T13:49:00;13.27;;;4.30;;
61188;SDS011;47054;39.716;2.904;2023-02-01T13:51:48;13.63;;;4.03;;
61188;SDS011;47054;39.716;2.904;2023-02-01T13:54:39;9.98;;;4.18;;
61188;SDS011;47054;39.716;2.904;2023-02-01T14:00:25;14.60;;;4.45;;
61188;SDS011;47054;39.716;2.904;2023-02-01T14:03:17;8.75;;;3.72;;
61188;SDS011;47054;39.716;2.904;2023-02-01T14:06:05;10.25;;;3.97;;
61188;SDS011;47054;39.716;2.904;2023-02-01T14:09:30;11.27;;;3.95;;
61188;SDS011;47054;39.716;2.904;2023-02-01T14:15:33;11.90;;;4.40;;
61188;SDS011;47054;39.716;2.904;2023-02-01T14:21:33;9.25;;;3.80;;
61188;SDS011;47054;39.716;2.904;2023-02-01T14:24:23;13.10;;;3.92;;
61188;SDS011;47054;39.716;2.904;2023-02-01T14:30:05;10.40;;;4.00;;
61188;SDS011;47054;39.716;2.904;2023-02-01T14:32:55;10.10;;;4.07;;
61188;SDS011;47054;39.716;2.904;2023-02-01T14:35:40;10.05;;;3.50;;
61188;SDS011;47054;39.716;2.904;2023-02-01T14:38:24;11.95;;;4.25;;
61188;SDS011;47054;39.716;2.904;2023-02-01T14:47:08;10.48;;;4.00;;
61188;SDS011;47054;39.716;2.904;2023-02-01T14:49:56;11.93;;;3.97;;
61188;SDS011;47054;39.716;2.904;2023-02-01T14:52:51;19.05;;;4.22;;
61188;SDS011;47054;39.716;2.904;2023-02-01T14:58:35;13.18;;;4.60;;
61188;SDS011;47054;39.716;2.904;2023-02-01T15:01:50;14.48;;;4.18;;
61188;SDS011;47054;39.716;2.904;2023-02-01T15:04:41;10.15;;;3.85;;
61188;SDS011;47054;39.716;2.904;2023-02-01T15:07:26;8.00;;;3.80;;
61188;SDS011;47054;39.716;2.904;2023-02-01T15:10:12;9.90;;;3.97;;
61188;SDS011;47054;39.716;2.904;2023-02-01T15:12:58;9.80;;;3.90;;
61188;SDS011;47054;39.716;2.904;2023-02-01T15:15:43;11.38;;;3.95;;
61188;SDS011;47054;39.716;2.904;2023-02-01T15:18:28;8.77;;;3.65;;
61188;SDS011;47054;39.716;2.904;2023-02-01T15:21:20;9.70;;;3.65;;
61188;SDS011;47054;39.716;2.904;2023-02-01T15:24:10;11.95;;;4.00;;
61188;SDS011;47054;39.716;2.904;2023-02-01T15:27:02;11.32;;;3.85;;
61188;SDS011;47054;39.716;2.904;2023-02-01T15:29:48;10.45;;;3.92;;
61188;SDS011;47054;39.716;2.904;2023-02-01T15:32:34;10.60;;;3.95;;
61188;SDS011;47054;39.716;2.904;2023-02-01T15:44:03;7.40;;;3.08;;
61188;SDS011;47054;39.716;2.904;2023-02-01T15:46:55;8.50;;;3.38;;
61188;SDS011;47054;39.716;2.904;2023-02-01T15:49:41;9.40;;;3.50;;
61188;SDS011;47054;39.716;2.904;2023-02-01T15:52:36;7.85;;;3.58;;
61188;SDS011;47054;39.716;2.904;2023-02-01T15:58:21;9.77;;;3.40;;
61188;SDS011;47054;39.716;2.904;2023-02-01T16:01:10;8.52;;;3.20;;
61188;SDS011;47054;39.716;2.904;2023-02-01T16:04:46;7.60;;;3.20;;
61188;SDS011;47054;39.716;2.904;2023-02-01T16:07:20;8.18;;;3.42;;
61188;SDS011;47054;39.716;2.904;2023-02-01T16:10:22;8.95;;;3.30;;
61188;SDS011;47054;39.716;2.904;2023-02-01T16:15:54;9.00;;;3.13;;
61188;SDS011;47054;39.716;2.904;2023-02-01T16:18:42;10.60;;;3.45;;
61188;SDS011;47054;39.716;2.904;2023-02-01T16:21:27;8.82;;;3.10;;
61188;SDS011;47054;39.716;2.904;2023-02-01T16:24:11;9.20;;;3.22;;
61188;SDS011;47054;39.716;2.904;2023-02-01T16:26:56;9.75;;;3.10;;
61188;SDS011;47054;39.716;2.904;2023-02-01T16:29:40;7.63;;;2.97;;
61188;SDS011;47054;39.716;2.904;2023-02-01T16:32:25;10.35;;;3.47;;
61188;SDS011;47054;39.716;2.904;2023-02-01T16:35:22;7.03;;;3.33;;
61188;SDS011;47054;39.716;2.904;2023-02-01T16:38:17;8.23;;;3.40;;
61188;SDS011;47054;39.716;2.904;2023-02-01T16:41:05;6.75;;;2.70;;
61188;SDS011;47054;39.716;2.904;2023-02-01T16:43:50;8.40;;;3.60;;
61188;SDS011;47054;39.716;2.904;2023-02-01T16:46:38;14.10;;;3.40;;
61188;SDS011;47054;39.716;2.904;2023-02-01T16:49:26;7.03;;;3.03;;
61188;SDS011;47054;39.716;2.904;2023-02-01T16:52:23;6.30;;;2.90;;
61188;SDS011;47054;39.716;2.904;2023-02-01T16:55:14;6.68;;;3.10;;
61188;SDS011;47054;39.716;2.904;2023-02-01T16:58:00;7.95;;;2.92;;
61188;SDS011;47054;39.716;2.904;2023-02-01T17:00:45;9.40;;;3.58;;
61188;SDS011;47054;39.716;2.904;2023-02-01T17:03:31;6.15;;;2.42;;
61188;SDS011;47054;39.716;2.904;2023-02-01T17:06:19;6.45;;;3.20;;
61188;SDS011;47054;39.716;2.904;2023-02-01T17:09:06;7.65;;;2.92;;
61188;SDS011;47054;39.716;2.904;2023-02-01T17:11:51;6.35;;;2.92;;
61188;SDS011;47054;39.716;2.904;2023-02-01T17:14:36;5.80;;;2.55;;
61188;SDS011;47054;39.716;2.904;2023-02-01T17:17:34;6.43;;;2.90;;
61188;SDS011;47054;39.716;2.904;2023-02-01T17:20:22;5.85;;;2.78;;
61188;SDS011;47054;39.716;2.904;2023-02-01T17:23:08;7.18;;;3.13;;
61188;SDS011;47054;39.716;2.904;2023-02-01T17:25:53;5.90;;;2.72;;
61188;SDS011;47054;39.716;2.904;2023-02-01T17:28:39;7.38;;;3.38;;
61188;SDS011;47054;39.716;2.904;2023-02-01T17:31:23;8.52;;;3.35;;
61188;SDS011;47054;39.716;2.904;2023-02-01T17:34:09;7.70;;;3.38;;
61188;SDS011;47054;39.716;2.904;2023-02-01T17:36:54;7.32;;;3.00;;
61188;SDS011;47054;39.716;2.904;2023-02-01T17:39:38;7.28;;;3.10;;
61188;SDS011;47054;39.716;2.904;2023-02-01T17:42:38;7.32;;;3.28;;
61188;SDS011;47054;39.716;2.904;2023-02-01T17:45:27;9.23;;;3.55;;
61188;SDS011;47054;39.716;2.904;2023-02-01T17:48:21;8.02;;;3.40;;
61188;SDS011;47054;39.716;2.904;2023-02-01T17:51:16;8.90;;;3.58;;
61188;SDS011;47054;39.716;2.904;2023-02-01T17:54:02;12.05;;;3.75;;
61188;SDS011;47054;39.716;2.904;2023-02-01T17:56:47;9.38;;;4.10;;
61188;SDS011;47054;39.716;2.904;2023-02-01T17:59:32;9.38;;;4.00;;
61188;SDS011;47054;39.716;2.904;2023-02-01T18:02:21;14.38;;;4.43;;
61188;SDS011;47054;39.716;2.904;2023-02-01T18:05:20;9.73;;;4.07;;
61188;SDS011;47054;39.716;2.904;2023-02-01T18:08:06;8.18;;;3.58;;
61188;SDS011;47054;39.716;2.904;2023-02-01T18:10:53;8.52;;;4.05;;
61188;SDS011;47054;39.716;2.904;2023-02-01T18:13:39;10.32;;;4.00;;
61188;SDS011;47054;39.716;2.904;2023-02-01T18:16:25;10.73;;;3.75;;
61188;SDS011;47054;39.716;2.904;2023-02-01T18:19:11;10.27;;;4.20;;
61188;SDS011;47054;39.716;2.904;2023-02-01T18:21:56;8.48;;;3.85;;
61188;SDS011;47054;39.716;2.904;2023-02-01T18:24:40;10.77;;;4.00;;
61188;SDS011;47054;39.716;2.904;2023-02-01T18:27:25;10.65;;;4.22;;
61188;SDS011;47054;39.716;2.904;2023-02-01T18:30:10;8.18;;;3.72;;
61188;SDS011;47054;39.716;2.904;2023-02-01T18:32:55;7.20;;;3.80;;
61188;SDS011;47054;39.716;2.904;2023-02-01T18:35:40;8.82;;;3.72;;
61188;SDS011;47054;39.716;2.904;2023-02-01T18:38:25;10.88;;;3.72;;
61188;SDS011;47054;39.716;2.904;2023-02-01T18:41:13;10.30;;;4.00;;
61188;SDS011;47054;39.716;2.904;2023-02-01T18:44:00;12.43;;;4.30;;
61188;SDS011;47054;39.716;2.904;2023-02-01T18:46:44;10.60;;;4.28;;
61188;SDS011;47054;39.716;2.904;2023-02-01T18:49:30;12.20;;;4.60;;
61188;SDS011;47054;39.716;2.904;2023-02-01T18:52:14;10.07;;;4.15;;
61188;SDS011;47054;39.716;2.904;2023-02-01T18:54:59;13.52;;;4.18;;
61188;SDS011;47054;39.716;2.904;2023-02-01T18:57:44;10.88;;;4.28;;
61188;SDS011;47054;39.716;2.904;2023-02-01T19:00:29;11.52;;;4.70;;
61188;SDS011;47054;39.716;2.904;2023-02-01T19:03:14;8.73;;;4.40;;
61188;SDS011;47054;39.716;2.904;2023-02-01T19:05:59;13.38;;;4.43;;
61188;SDS011;47054;39.716;2.904;2023-02-01T19:08:48;14.00;;;4.80;;
61188;SDS011;47054;39.716;2.904;2023-02-01T19:11:34;11.50;;;4.22;;
61188;SDS011;47054;39.716;2.904;2023-02-01T19:14:18;12.07;;;4.50;;
61188;SDS011;47054;39.716;2.904;2023-02-01T19:17:03;12.85;;;4.40;;